createdAt,value
2022-12-09T00:02:00.895Z,7.79
2022-12-09T00:05:07.995Z,7.85
2022-12-09T00:08:14.896Z,7.70
2022-12-09T00:11:23.740Z,7.47
2022-12-09T00:14:30.018Z,7.56
2022-12-09T00:17:36.242Z,7.03
2022-12-09T00:20:42.559Z,7.16
2022-12-09T00:23:49.471Z,7.03
2022-12-09T00:26:58.202Z,6.92
2022-12-09T00:30:05.610Z,6.87
2022-12-09T00:33:12.089Z,7.25
2022-12-09T00:36:20.724Z,7.46
2022-12-09T00:39:27.075Z,7.56
2022-12-09T00:42:34.870Z,7.04
2022-12-09T00:45:40.936Z,6.85
2022-12-09T00:48:47.658Z,7.26
2022-12-09T00:51:54.286Z,7.29
2022-12-09T00:55:00.413Z,7.36
2022-12-09T00:58:07.920Z,7.33
2022-12-09T01:01:14.216Z,7.15
2022-12-09T01:04:20.385Z,7.15
2022-12-09T01:07:26.684Z,6.90
2022-12-09T01:10:34.388Z,7.31
2022-12-09T01:13:41.832Z,7.20
2022-12-09T01:16:48.662Z,7.22
2022-12-09T01:19:55.148Z,7.03
2022-12-09T01:23:01.771Z,7.01
2022-12-09T01:26:09.243Z,6.89
2022-12-09T01:29:17.457Z,6.76
2022-12-09T01:32:24.182Z,6.72
2022-12-09T01:35:30.503Z,6.62
2022-12-09T01:38:37.266Z,6.27
2022-12-09T01:41:44.170Z,6.18
2022-12-09T01:45:38.020Z,6.17
2022-12-09T01:48:47.929Z,5.88
2022-12-09T01:52:01.652Z,5.76
2022-12-09T01:55:08.630Z,5.60
2022-12-09T01:58:16.146Z,5.97
2022-12-09T02:01:23.797Z,5.48
2022-12-09T02:04:33.613Z,5.51
2022-12-09T02:07:40.342Z,5.49
2022-12-09T02:10:57.070Z,5.54
2022-12-09T02:14:10.759Z,5.47
2022-12-09T02:17:31.467Z,5.34
2022-12-09T02:20:42.239Z,5.87
2022-12-09T02:23:54.934Z,5.95
2022-12-09T02:27:07.662Z,6.15
2022-12-09T02:30:17.223Z,5.87
2022-12-09T02:33:37.298Z,5.44
2022-12-09T02:36:55.902Z,5.71
2022-12-09T02:40:07.143Z,5.39
2022-12-09T02:43:15.402Z,5.25
2022-12-09T02:46:23.464Z,5.36
2022-12-09T02:49:31.942Z,5.19
2022-12-09T02:52:40.823Z,5.23
2022-12-09T02:55:49.177Z,5.37
2022-12-09T02:58:55.834Z,5.32
2022-12-09T03:02:14.013Z,5.66
2022-12-09T03:05:25.107Z,5.59
2022-12-09T03:08:43.949Z,5.89
2022-12-09T03:11:52.559Z,6.19
2022-12-09T03:15:00.890Z,5.88
2022-12-09T03:18:12.794Z,5.23
2022-12-09T03:21:22.979Z,5.06
2022-12-09T03:24:36.360Z,5.70
2022-12-09T03:27:48.676Z,5.70
2022-12-09T03:30:58.009Z,5.86
2022-12-09T03:34:07.767Z,5.77
2022-12-09T03:37:16.882Z,5.59
2022-12-09T03:40:28.937Z,5.66
2022-12-09T03:43:39.475Z,6.02
2022-12-09T03:46:45.951Z,6.08
2022-12-09T03:49:52.675Z,6.06
2022-12-09T03:53:04.463Z,6.05
2022-12-09T03:56:19.273Z,6.04
2022-12-09T03:59:30.030Z,6.20
2022-12-09T04:02:36.923Z,5.87
2022-12-09T04:05:43.876Z,5.67
2022-12-09T04:08:50.280Z,5.51
2022-12-09T04:11:58.110Z,5.86
2022-12-09T04:15:04.190Z,5.48
2022-12-09T04:18:10.770Z,5.36
2022-12-09T04:21:17.112Z,5.28
2022-12-09T04:24:23.463Z,5.73
2022-12-09T04:27:31.340Z,6.10
2022-12-09T04:30:37.791Z,6.28
2022-12-09T04:33:46.461Z,6.19
2022-12-09T04:36:52.832Z,6.21
2022-12-09T04:39:59.139Z,6.43
2022-12-09T04:43:06.887Z,6.40
2022-12-09T04:46:15.413Z,6.39
2022-12-09T04:49:21.672Z,6.29
2022-12-09T04:52:28.261Z,5.99
2022-12-09T04:55:34.876Z,6.15
2022-12-09T04:58:44.278Z,6.01
2022-12-09T05:01:50.310Z,6.52
2022-12-09T05:04:56.870Z,6.58
2022-12-09T05:08:03.218Z,6.46
2022-12-09T05:11:10.180Z,6.26
2022-12-09T05:14:18.160Z,6.39
2022-12-09T05:17:20.355Z,6.32
2022-12-09T05:20:29.885Z,6.61
2022-12-09T05:23:37.511Z,6.38
2022-12-09T05:26:43.612Z,6.40
2022-12-09T05:29:51.538Z,6.56
2022-12-09T05:32:57.744Z,6.48
2022-12-09T05:36:05.537Z,6.38
2022-12-09T05:39:11.591Z,6.56
2022-12-09T05:42:17.746Z,6.88
2022-12-09T05:45:25.826Z,6.91
2022-12-09T05:48:32.605Z,6.99
2022-12-09T05:51:39.252Z,7.22
2022-12-09T05:54:46.014Z,7.14
2022-12-09T05:57:53.273Z,7.09
2022-12-09T06:01:07.195Z,7.06
2022-12-09T06:04:13.929Z,7.25
2022-12-09T06:07:20.711Z,6.93
2022-12-09T06:10:27.362Z,7.06
2022-12-09T06:13:34.208Z,7.02
2022-12-09T06:16:42.402Z,7.14
2022-12-09T06:19:49.096Z,7.16
2022-12-09T06:22:55.361Z,7.21
2022-12-09T06:26:02.314Z,7.34
2022-12-09T06:29:08.735Z,7.50
2022-12-09T06:32:16.536Z,7.52
2022-12-09T06:35:23.127Z,7.64
2022-12-09T06:38:30.150Z,7.62
2022-12-09T06:41:36.873Z,7.76
2022-12-09T06:44:43.243Z,7.90
2022-12-09T06:47:50.777Z,8.06
2022-12-09T06:50:57.455Z,7.86
2022-12-09T06:54:04.478Z,8.29
2022-12-09T06:57:10.900Z,8.18
2022-12-09T07:00:18.391Z,8.02
2022-12-09T07:03:26.289Z,8.16
2022-12-09T07:06:36.246Z,8.26
2022-12-09T07:09:42.780Z,8.11
2022-12-09T07:12:48.937Z,8.25
2022-12-09T07:15:55.380Z,8.35
2022-12-09T07:19:03.404Z,8.49
2022-12-09T07:22:09.726Z,8.46
2022-12-09T07:25:16.389Z,8.53
2022-12-09T07:28:23.324Z,8.45
2022-12-09T07:31:30.971Z,8.52
2022-12-09T07:34:39.073Z,8.52
2022-12-09T07:37:45.751Z,8.75
2022-12-09T07:40:52.819Z,8.76
2022-12-09T07:43:59.800Z,8.74
2022-12-09T07:47:06.438Z,8.58
2022-12-09T07:50:14.972Z,8.84
2022-12-09T07:53:21.679Z,8.88
2022-12-09T07:56:29.225Z,8.65
2022-12-09T07:59:36.083Z,8.86
2022-12-09T08:02:42.774Z,8.92
2022-12-09T08:05:51.667Z,8.80
2022-12-09T08:09:00.724Z,8.93
2022-12-09T08:12:07.698Z,8.88
2022-12-09T08:15:14.847Z,8.93
2022-12-09T08:18:21.596Z,8.89
2022-12-09T08:21:31.871Z,9.03
2022-12-09T08:24:38.381Z,9.25
2022-12-09T08:27:44.859Z,9.16
2022-12-09T08:30:52.111Z,9.23
2022-12-09T08:33:58.763Z,9.32
2022-12-09T08:37:06.787Z,9.00
2022-12-09T08:40:14.481Z,9.01
2022-12-09T08:43:21.459Z,9.07
2022-12-09T08:46:27.894Z,9.01
2022-12-09T08:49:34.797Z,8.87
2022-12-09T08:52:43.710Z,9.01
2022-12-09T08:55:50.310Z,9.11
2022-12-09T08:58:57.382Z,9.17
2022-12-09T09:02:04.095Z,9.08
2022-12-09T09:05:11.584Z,9.35
2022-12-09T09:08:19.786Z,9.32
2022-12-09T09:11:27.023Z,9.38
2022-12-09T09:14:34.172Z,9.24
2022-12-09T09:17:42.765Z,9.45
2022-12-09T09:20:53.823Z,9.41
2022-12-09T09:24:02.360Z,9.34
2022-12-09T09:27:08.958Z,9.47
2022-12-09T09:30:16.068Z,9.78
2022-12-09T09:33:22.545Z,9.56
2022-12-09T09:36:28.998Z,9.58
2022-12-09T09:39:36.950Z,9.69
2022-12-09T09:42:49.895Z,9.61
2022-12-09T09:45:59.489Z,9.88
2022-12-09T09:49:09.451Z,10.05
2022-12-09T09:52:19.180Z,9.97
2022-12-09T09:55:36.084Z,9.75
2022-12-09T09:58:51.117Z,9.80
2022-12-09T10:02:09.802Z,10.13
2022-12-09T10:05:24.198Z,9.97
2022-12-09T10:08:37.909Z,10.05
2022-12-09T10:11:57.203Z,10.22
2022-12-09T10:15:11.856Z,9.93
2022-12-09T10:18:25.973Z,10.20
2022-12-09T10:21:34.093Z,10.25
2022-12-09T10:24:49.417Z,10.50
2022-12-09T10:28:03.108Z,10.22
2022-12-09T10:31:12.697Z,10.22
2022-12-09T10:34:19.417Z,10.17
2022-12-09T10:37:32.138Z,10.13
2022-12-09T10:40:50.512Z,10.56
2022-12-09T10:44:19.681Z,10.37
2022-12-09T10:47:28.566Z,10.52
2022-12-09T10:50:38.027Z,10.44
2022-12-09T10:53:50.413Z,10.20
2022-12-09T10:57:09.679Z,10.43
2022-12-09T11:00:29.598Z,10.67
2022-12-09T11:03:42.450Z,10.97
2022-12-09T11:06:55.628Z,10.95
2022-12-09T11:10:18.041Z,11.09
2022-12-09T11:13:40.569Z,10.96
2022-12-09T11:16:48.278Z,10.71
2022-12-09T11:19:56.942Z,10.50
2022-12-09T11:23:07.379Z,10.89
2022-12-09T11:29:49.535Z,11.25
2022-12-09T11:33:24.471Z,11.21
2022-12-09T11:36:35.406Z,10.81
2022-12-09T11:39:51.345Z,10.80
2022-12-09T11:42:58.755Z,11.25
2022-12-09T11:46:18.303Z,11.08
2022-12-09T11:49:27.207Z,11.14
2022-12-09T11:52:33.287Z,10.80
2022-12-09T11:55:45.423Z,10.41
2022-12-09T11:58:59.121Z,10.86
2022-12-09T12:02:14.623Z,11.18
2022-12-09T12:05:25.211Z,10.80
2022-12-09T12:08:38.628Z,10.87
2022-12-09T12:11:56.419Z,11.08
2022-12-09T12:15:11.494Z,11.19
2022-12-09T12:18:21.374Z,10.96
2022-12-09T12:21:47.409Z,11.04
2022-12-09T12:25:11.083Z,10.98
2022-12-09T12:28:38.382Z,10.98
2022-12-09T12:32:21.259Z,11.21
2022-12-09T12:35:47.687Z,11.43
2022-12-09T12:39:07.293Z,11.33
2022-12-09T12:42:25.723Z,11.13
2022-12-09T12:45:58.152Z,11.19
2022-12-09T12:49:25.608Z,11.06
2022-12-09T12:52:57.762Z,10.80
2022-12-09T12:56:10.067Z,11.05
2022-12-09T12:59:24.173Z,10.53
2022-12-09T13:02:42.379Z,10.84
2022-12-09T13:05:51.949Z,10.84
2022-12-09T13:09:03.544Z,11.04
2022-12-09T13:12:16.956Z,11.16
2022-12-09T13:15:26.831Z,10.81
2022-12-09T13:18:37.683Z,10.91
2022-12-09T13:21:45.720Z,11.16
2022-12-09T13:25:01.613Z,11.09
2022-12-09T13:28:12.083Z,10.99
2022-12-09T13:31:22.168Z,10.82
2022-12-09T13:34:36.946Z,10.63
2022-12-09T13:38:01.433Z,10.36
2022-12-09T13:42:00.230Z,10.49
2022-12-09T13:45:16.189Z,10.73
2022-12-09T13:48:55.566Z,10.80
2022-12-09T13:52:01.616Z,10.99
2022-12-09T13:55:20.664Z,10.76
2022-12-09T13:58:56.784Z,10.89
2022-12-09T14:02:15.073Z,10.62
2022-12-09T14:05:25.048Z,10.45
2022-12-09T14:08:37.513Z,10.46
2022-12-09T14:11:48.468Z,10.65
2022-12-09T14:14:54.957Z,10.71
2022-12-09T14:18:05.314Z,10.65
2022-12-09T14:21:29.077Z,10.65
2022-12-09T14:24:36.844Z,10.68
2022-12-09T14:28:24.411Z,10.72
2022-12-09T14:32:03.648Z,10.89
2022-12-09T14:35:30.186Z,10.80
2022-12-09T14:42:23.933Z,10.72
2022-12-09T14:45:34.419Z,10.74
2022-12-09T14:48:42.181Z,10.41
2022-12-09T14:51:51.405Z,10.52
2022-12-09T14:54:59.572Z,10.82
2022-12-09T14:58:06.390Z,10.71
2022-12-09T15:01:12.429Z,10.80
2022-12-09T15:04:24.915Z,10.69
2022-12-09T15:07:33.726Z,10.58
2022-12-09T15:10:40.208Z,10.57
2022-12-09T15:13:48.771Z,10.61
2022-12-09T15:16:56.637Z,10.69
2022-12-09T15:20:04.284Z,10.84
2022-12-09T15:23:23.533Z,10.86
2022-12-09T15:26:32.331Z,10.83
2022-12-09T15:29:38.362Z,10.85
2022-12-09T15:32:46.382Z,10.74
2022-12-09T15:35:56.628Z,10.84
2022-12-09T15:39:07.433Z,10.69
2022-12-09T15:42:18.156Z,10.75
2022-12-09T15:45:28.296Z,10.61
2022-12-09T15:48:38.537Z,10.57
2022-12-09T15:51:47.128Z,10.39
2022-12-09T15:54:55.598Z,10.43
2022-12-09T15:58:06.258Z,10.50
2022-12-09T16:01:21.097Z,10.36
2022-12-09T16:04:31.522Z,10.53
2022-12-09T16:07:38.249Z,10.41
2022-12-09T16:10:50.985Z,10.66
2022-12-09T16:14:01.451Z,10.53
2022-12-09T16:17:08.322Z,10.46
2022-12-09T16:20:23.621Z,10.46
2022-12-09T16:23:30.393Z,10.36
2022-12-09T16:26:40.810Z,10.44
2022-12-09T16:29:51.377Z,10.26
2022-12-09T16:32:59.583Z,10.37
2022-12-09T16:36:07.904Z,10.07
2022-12-09T16:39:38.253Z,10.12
2022-12-09T16:42:46.102Z,10.24
2022-12-09T16:45:54.534Z,10.19
2022-12-09T16:49:05.093Z,10.40
2022-12-09T16:52:13.757Z,10.29
2022-12-09T16:55:25.869Z,10.40
2022-12-09T16:58:35.693Z,10.21
2022-12-09T17:01:44.069Z,10.11
2022-12-09T17:04:52.308Z,10.07
2022-12-09T17:07:58.968Z,10.45
2022-12-09T17:11:05.394Z,10.18
2022-12-09T17:14:13.141Z,9.99
2022-12-09T17:17:19.837Z,10.24
2022-12-09T17:20:26.064Z,10.47
2022-12-09T17:23:39.196Z,10.22
2022-12-09T17:26:46.288Z,10.51
2022-12-09T17:29:54.126Z,10.57
2022-12-09T17:33:00.679Z,10.60
2022-12-09T17:36:07.905Z,10.61
2022-12-09T17:39:15.120Z,10.55
2022-12-09T17:42:21.580Z,10.46
2022-12-09T17:45:29.529Z,10.03
2022-12-09T17:48:37.044Z,10.15
2022-12-09T17:51:43.395Z,10.36
2022-12-09T17:54:49.747Z,10.62
2022-12-09T17:57:56.080Z,10.63
2022-12-09T18:01:04.051Z,10.63
2022-12-09T18:04:12.142Z,10.39
2022-12-09T18:07:18.226Z,10.29
2022-12-09T18:10:24.505Z,10.78
2022-12-09T18:13:31.072Z,10.79
2022-12-09T18:16:39.399Z,10.92
2022-12-09T18:19:45.658Z,10.82
2022-12-09T18:22:52.155Z,10.70
2022-12-09T18:25:58.543Z,10.54
2022-12-09T18:29:05.195Z,10.91
2022-12-09T18:32:12.483Z,11.13
2022-12-09T18:35:18.591Z,11.08
2022-12-09T18:38:24.717Z,11.07
2022-12-09T18:41:32.742Z,11.13
2022-12-09T18:44:38.902Z,11.22
2022-12-09T18:47:46.411Z,11.25
2022-12-09T18:50:52.554Z,11.20
2022-12-09T18:53:59.214Z,11.22
2022-12-09T18:57:05.735Z,11.17
2022-12-09T19:00:13.286Z,11.18
2022-12-09T19:03:21.140Z,11.12
2022-12-09T19:06:29.348Z,11.00
2022-12-09T19:09:37.469Z,10.94
2022-12-09T19:12:49.717Z,11.05
2022-12-09T19:16:00.106Z,11.28
2022-12-09T19:19:10.388Z,11.36
2022-12-09T19:22:17.204Z,11.14
2022-12-09T19:25:23.694Z,11.17
2022-12-09T19:28:30.056Z,11.21
2022-12-09T19:31:39.353Z,11.10
2022-12-09T19:34:46.908Z,10.90
2022-12-09T19:37:58.005Z,10.62
2022-12-09T19:41:08.484Z,10.29
2022-12-09T19:44:31.012Z,10.08
2022-12-09T19:47:42.670Z,9.88
2022-12-09T19:50:50.037Z,10.08
2022-12-09T19:53:57.985Z,10.39
2022-12-09T19:57:03.986Z,10.55
2022-12-09T20:00:12.543Z,10.25
2022-12-09T20:03:18.659Z,9.85
2022-12-09T20:06:26.235Z,9.86
2022-12-09T20:09:32.574Z,10.04
2022-12-09T20:12:39.213Z,10.34
2022-12-09T20:15:45.583Z,10.48
2022-12-09T20:18:52.557Z,10.54
2022-12-09T20:22:00.458Z,10.31
2022-12-09T20:25:07.150Z,10.38
2022-12-09T20:28:13.504Z,10.49
2022-12-09T20:31:22.432Z,10.58
2022-12-09T20:34:28.917Z,10.40
2022-12-09T20:37:36.751Z,10.24
2022-12-09T20:40:43.212Z,10.42
2022-12-09T20:43:51.069Z,10.58
2022-12-09T20:46:57.424Z,10.51
2022-12-09T20:50:03.570Z,10.55
2022-12-09T20:53:11.210Z,10.35
2022-12-09T20:56:18.817Z,10.52
2022-12-09T20:59:25.399Z,10.74
2022-12-09T21:02:38.555Z,10.54
2022-12-09T21:05:44.686Z,10.48
2022-12-09T21:08:53.906Z,10.65
2022-12-09T21:12:00.443Z,10.66
2022-12-09T21:15:07.896Z,10.48
2022-12-09T21:18:14.072Z,10.22
2022-12-09T21:21:21.424Z,10.31
2022-12-09T21:24:28.949Z,10.32
2022-12-09T21:27:35.014Z,10.43
2022-12-09T21:30:41.245Z,10.57
2022-12-09T21:33:49.260Z,10.56
2022-12-09T21:36:55.700Z,10.64
2022-12-09T21:40:03.444Z,10.67
2022-12-09T21:43:09.564Z,10.44
2022-12-09T21:46:19.119Z,10.47
2022-12-09T21:49:25.989Z,10.43
2022-12-09T21:52:34.953Z,10.49
2022-12-09T21:55:43.316Z,10.59
2022-12-09T21:58:51.181Z,10.62
2022-12-09T22:01:57.739Z,10.36
2022-12-09T22:05:04.030Z,10.33
2022-12-09T22:08:10.196Z,10.37
2022-12-09T22:11:21.170Z,10.39
2022-12-09T22:14:27.472Z,10.63
2022-12-09T22:17:33.662Z,10.57
2022-12-09T22:21:23.746Z,10.79
2022-12-09T22:24:09.412Z,10.52
2022-12-09T22:27:16.910Z,10.06
2022-12-09T22:30:23.148Z,10.13
2022-12-09T22:33:29.985Z,10.63
2022-12-09T22:36:37.224Z,10.63
2022-12-09T22:39:43.326Z,10.71
2022-12-09T22:42:51.465Z,10.55
2022-12-09T22:45:58.078Z,10.71
2022-12-09T22:49:07.796Z,10.39
2022-12-09T22:52:14.583Z,10.30
2022-12-09T22:55:20.692Z,10.26
2022-12-09T22:58:29.144Z,10.11
2022-12-09T23:01:37.578Z,10.40
2022-12-09T23:04:43.870Z,10.26
2022-12-09T23:07:50.063Z,10.26
2022-12-09T23:10:56.392Z,10.02
2022-12-09T23:14:06.919Z,9.84
2022-12-09T23:17:13.178Z,10.17
2022-12-09T23:20:19.784Z,10.34
2022-12-09T23:23:26.036Z,10.46
2022-12-09T23:26:34.650Z,10.57
2022-12-09T23:29:42.479Z,10.49
2022-12-09T23:32:49.408Z,10.15
2022-12-09T23:35:55.825Z,10.25
2022-12-09T23:39:03.125Z,10.20
2022-12-09T23:42:09.292Z,10.43
2022-12-09T23:45:17.241Z,10.09
2022-12-09T23:48:23.429Z,10.41
2022-12-09T23:51:31.317Z,10.26
2022-12-09T23:54:37.887Z,10.05
2022-12-09T23:57:43.919Z,10.19
